Time,TemperatureF,DewpointF,PressureIn,WindDirection,WindDirectionDegrees,WindSpeedMPH,WindSpeedGustMPH,Humidity,HourlyPrecipIn,Conditions,Clouds,dailyrainin,SoftwareType,DateUTC
2016-07-30 00:02:00,67.7,66.2,29.91,East,83,0.0,0.0,95,0.00,,,0.00,WeatherCatV2.31B93,2016-07-30 04:02:00,
2016-07-30 00:07:00,67.7,66.2,29.91,East,83,0.0,0.0,95,0.00,,,0.00,WeatherCatV2.31B93,2016-07-30 04:07:00,
2016-07-30 00:12:00,67.7,66.2,29.91,East,83,0.0,0.0,95,0.00,,,0.00,WeatherCatV2.31B93,2016-07-30 04:12:00,
2016-07-30 00:17:00,67.7,66.2,29.91,East,83,0.0,0.0,95,0.00,,,0.00,WeatherCatV2.31B93,2016-07-30 04:17:00,
2016-07-30 00:22:00,67.7,66.2,29.92,East,83,0.0,0.0,95,0.00,,,0.00,WeatherCatV2.31B93,2016-07-30 04:22:00,
2016-07-30 00:27:00,67.7,66.2,29.91,East,83,0.0,0.0,95,0.00,,,0.00,WeatherCatV2.31B93,2016-07-30 04:27:00,
2016-07-30 00:32:00,67.7,66.2,29.91,East,83,0.0,0.0,95,0.00,,,0.00,WeatherCatV2.31B93,2016-07-30 04:32:00,
2016-07-30 00:37:00,67.8,66.6,29.91,East,83,0.0,0.0,96,0.00,,,0.00,WeatherCatV2.31B93,2016-07-30 04:37:00,
2016-07-30 00:42:00,67.8,66.6,29.91,East,83,0.0,0.0,96,0.00,,,0.00,WeatherCatV2.31B93,2016-07-30 04:42:00,
2016-07-30 00:47:00,67.8,66.6,29.91,East,83,0.0,0.0,96,0.00,,,0.00,WeatherCatV2.31B93,2016-07-30 04:47:00,
2016-07-30 00:52:00,67.7,66.5,29.91,East,83,0.0,0.0,96,0.00,,,0.00,WeatherCatV2.31B93,2016-07-30 04:52:00,
2016-07-30 00:57:00,67.7,66.5,29.91,East,83,0.0,0.0,96,0.00,,,0.00,WeatherCatV2.31B93,2016-07-30 04:57:00,
2016-07-30 01:02:00,67.7,66.5,29.91,East,83,0.0,0.0,96,0.00,,,0.00,WeatherCatV2.31B93,2016-07-30 05:02:00,
2016-07-30 01:07:00,67.8,66.6,29.91,East,83,0.0,0.0,96,0.00,,,0.00,WeatherCatV2.31B93,2016-07-30 05:07:00,
2016-07-30 01:12:00,67.8,66.6,29.91,East,83,0.0,0.0,96,0.00,,,0.00,WeatherCatV2.31B93,2016-07-30 05:12:00,
2016-07-30 01:17:00,67.9,66.7,29.91,East,83,0.0,0.0,96,0.00,,,0.00,WeatherCatV2.31B93,2016-07-30 05:17:00,
2016-07-30 01:22:00,67.8,66.6,29.91,East,83,0.0,0.0,96,0.00,,,0.00,WeatherCatV2.31B93,2016-07-30 05:22:00,
2016-07-30 01:27:00,67.8,66.6,29.92,East,83,0.0,0.0,96,0.00,,,0.00,WeatherCatV2.31B93,2016-07-30 05:27:00,
2016-07-30 01:32:00,67.7,66.5,29.92,East,83,0.0,0.0,96,0.00,,,0.00,WeatherCatV2.31B93,2016-07-30 05:32:00,
2016-07-30 01:37:00,67.7,66.5,29.92,East,83,0.0,0.0,96,0.00,,,0.00,WeatherCatV2.31B93,2016-07-30 05:37:00,
2016-07-30 01:42:00,67.6,66.4,29.92,East,83,0.0,0.0,96,0.00,,,0.00,WeatherCatV2.31B93,2016-07-30 05:42:00,
2016-07-30 01:47:00,67.6,66.4,29.92,East,83,0.0,0.0,96,0.00,,,0.00,WeatherCatV2.31B93,2016-07-30 05:47:00,
2016-07-30 01:52:00,67.7,66.5,29.92,East,83,0.0,0.0,96,0.00,,,0.00,WeatherCatV2.31B93,2016-07-30 05:52:00,
2016-07-30 01:57:00,67.7,66.5,29.92,East,83,0.0,0.0,96,0.00,,,0.00,WeatherCatV2.31B93,2016-07-30 05:57:00,
2016-07-30 02:02:00,67.7,66.5,29.92,East,83,0.0,0.0,96,0.00,,,0.00,WeatherCatV2.31B93,2016-07-30 06:02:00,
2016-07-30 02:07:00,67.6,66.4,29.92,East,83,0.0,0.0,96,0.00,,,0.00,WeatherCatV2.31B93,2016-07-30 06:07:00,
2016-07-30 02:12:00,67.4,66.2,29.92,East,83,0.0,0.0,96,0.00,,,0.00,WeatherCatV2.31B93,2016-07-30 06:12:00,
2016-07-30 02:17:00,67.3,66.1,29.92,East,83,0.0,0.0,96,0.00,,,0.00,WeatherCatV2.31B93,2016-07-30 06:17:00,
2016-07-30 02:22:00,67.1,65.9,29.92,East,83,0.0,0.0,96,0.00,,,0.00,WeatherCatV2.31B93,2016-07-30 06:22:00,
2016-07-30 02:27:00,67.0,65.8,29.92,East,83,0.0,0.0,96,0.00,,,0.00,WeatherCatV2.31B93,2016-07-30 06:27:00,
2016-07-30 02:32:00,67.0,65.8,29.92,East,83,0.0,0.0,96,0.00,,,0.00,WeatherCatV2.31B93,2016-07-30 06:32:00,
2016-07-30 02:37:00,67.0,65.8,29.93,East,83,0.0,0.0,96,0.00,,,0.00,WeatherCatV2.31B93,2016-07-30 06:37:00,
2016-07-30 02:42:00,66.8,65.6,29.93,East,83,0.0,0.0,96,0.00,,,0.00,WeatherCatV2.31B93,2016-07-30 06:42:00,
2016-07-30 02:47:00,66.7,65.5,29.93,East,83,0.0,0.0,96,0.00,,,0.00,WeatherCatV2.31B93,2016-07-30 06:47:00,
2016-07-30 02:52:00,66.6,65.1,29.93,East,83,0.0,0.0,95,0.00,,,0.00,WeatherCatV2.31B93,2016-07-30 06:52:00,
2016-07-30 02:57:00,66.4,65.2,29.93,East,83,0.0,0.0,96,0.00,,,0.00,WeatherCatV2.31B93,2016-07-30 06:57:00,
2016-07-30 03:02:00,66.3,64.8,29.93,East,83,0.0,0.0,95,0.00,,,0.00,WeatherCatV2.31B93,2016-07-30 07:02:00,
2016-07-30 03:07:00,66.2,64.7,29.93,East,83,0.0,0.0,95,0.00,,,0.00,WeatherCatV2.31B93,2016-07-30 07:07:00,
2016-07-30 03:12:00,66.1,64.6,29.93,East,83,0.0,0.0,95,0.00,,,0.00,WeatherCatV2.31B93,2016-07-30 07:12:00,
2016-07-30 03:17:00,66.0,64.5,29.93,East,83,0.0,0.0,95,0.00,,,0.00,WeatherCatV2.31B93,2016-07-30 07:17:00,
2016-07-30 03:22:00,65.8,64.3,29.93,East,83,0.0,0.0,95,0.00,,,0.00,WeatherCatV2.31B93,2016-07-30 07:22:00,
2016-07-30 03:27:00,65.8,64.3,29.93,East,83,0.0,0.0,95,0.00,,,0.00,WeatherCatV2.31B93,2016-07-30 07:27:00,
2016-07-30 03:32:00,65.7,64.2,29.93,East,83,0.0,0.0,95,0.00,,,0.00,WeatherCatV2.31B93,2016-07-30 07:32:00,
2016-07-30 03:37:00,65.6,63.8,29.93,East,83,0.0,0.0,94,0.00,,,0.00,WeatherCatV2.31B93,2016-07-30 07:37:00,
2016-07-30 03:42:00,65.4,63.6,29.94,East,83,0.0,0.0,94,0.00,,,0.00,WeatherCatV2.31B93,2016-07-30 07:42:00,
2016-07-30 03:47:00,65.3,63.5,29.94,East,83,0.0,0.0,94,0.00,,,0.00,WeatherCatV2.31B93,2016-07-30 07:47:00,
2016-07-30 03:52:00,65.2,63.4,29.94,East,83,0.0,0.0,94,0.00,,,0.00,WeatherCatV2.31B93,2016-07-30 07:52:00,
2016-07-30 03:57:00,65.1,63.3,29.94,East,83,0.0,0.0,94,0.00,,,0.00,WeatherCatV2.31B93,2016-07-30 07:57:00,
2016-07-30 04:02:00,65.0,63.2,29.94,East,83,0.0,0.0,94,0.00,,,0.00,WeatherCatV2.31B93,2016-07-30 08:02:00,
2016-07-30 04:07:00,64.9,63.1,29.94,East,83,0.0,0.0,94,0.00,,,0.00,WeatherCatV2.31B93,2016-07-30 08:07:00,
2016-07-30 04:12:00,64.8,62.7,29.94,East,83,0.0,0.0,93,0.00,,,0.00,WeatherCatV2.31B93,2016-07-30 08:12:00,
2016-07-30 04:17:00,64.7,62.6,29.94,East,83,0.0,0.0,93,0.00,,,0.00,WeatherCatV2.31B93,2016-07-30 08:17:00,
2016-07-30 04:22:00,64.6,62.5,29.94,East,83,0.0,0.0,93,0.00,,,0.00,WeatherCatV2.31B93,2016-07-30 08:22:00,
2016-07-30 04:27:00,64.5,62.4,29.95,East,83,0.0,0.0,93,0.00,,,0.00,WeatherCatV2.31B93,2016-07-30 08:27:00,
2016-07-30 04:32:00,64.5,62.4,29.95,East,83,0.0,0.0,93,0.00,,,0.00,WeatherCatV2.31B93,2016-07-30 08:32:00,
2016-07-30 04:37:00,64.4,62.3,29.95,East,83,0.0,0.0,93,0.00,,,0.00,WeatherCatV2.31B93,2016-07-30 08:37:00,
2016-07-30 04:42:00,64.3,62.2,29.95,East,83,0.0,0.0,93,0.00,,,0.00,WeatherCatV2.31B93,2016-07-30 08:42:00,
2016-07-30 04:47:00,64.1,62.0,29.95,East,83,0.0,0.0,93,0.00,,,0.00,WeatherCatV2.31B93,2016-07-30 08:47:00,
2016-07-30 04:52:00,63.9,61.8,29.95,East,83,0.0,0.0,93,0.00,,,0.00,WeatherCatV2.31B93,2016-07-30 08:52:00,
2016-07-30 04:57:00,63.8,61.7,29.95,East,83,0.0,0.0,93,0.00,,,0.00,WeatherCatV2.31B93,2016-07-30 08:57:00,
2016-07-30 05:02:00,63.6,61.5,29.96,East,83,0.0,0.0,93,0.00,,,0.00,WeatherCatV2.31B93,2016-07-30 09:02:00,
2016-07-30 05:07:00,63.5,61.4,29.96,East,83,0.0,0.0,93,0.00,,,0.00,WeatherCatV2.31B93,2016-07-30 09:07:00,
2016-07-30 05:12:00,63.4,61.3,29.96,East,83,0.0,0.0,93,0.00,,,0.00,WeatherCatV2.31B93,2016-07-30 09:12:00,
2016-07-30 05:17:00,63.3,61.5,29.96,East,83,0.0,0.0,94,0.00,,,0.00,WeatherCatV2.31B93,2016-07-30 09:17:00,
2016-07-30 05:22:00,63.3,61.5,29.96,East,83,0.0,0.0,94,0.00,,,0.00,WeatherCatV2.31B93,2016-07-30 09:22:00,
2016-07-30 05:27:00,63.2,61.4,29.97,East,83,0.0,0.0,94,0.00,,,0.00,WeatherCatV2.31B93,2016-07-30 09:27:00,
2016-07-30 05:32:00,63.1,61.3,29.97,East,83,0.0,0.0,94,0.00,,,0.00,WeatherCatV2.31B93,2016-07-30 09:32:00,
2016-07-30 05:37:00,62.9,61.1,29.97,East,83,0.0,0.0,94,0.00,,,0.00,WeatherCatV2.31B93,2016-07-30 09:37:00,
2016-07-30 05:42:00,62.8,61.0,29.97,East,83,0.0,0.0,94,0.00,,,0.00,WeatherCatV2.31B93,2016-07-30 09:42:00,
2016-07-30 05:47:00,62.6,60.8,29.97,East,83,0.0,0.0,94,0.00,,,0.00,WeatherCatV2.31B93,2016-07-30 09:47:00,
2016-07-30 05:52:00,62.5,60.8,29.97,East,83,0.0,0.0,94,0.00,,,0.00,WeatherCatV2.31B93,2016-07-30 09:52:00,
2016-07-30 05:57:00,62.4,60.7,29.97,East,83,0.0,0.0,94,0.00,,,0.00,WeatherCatV2.31B93,2016-07-30 09:57:00,
2016-07-30 06:02:00,62.3,60.5,29.97,East,83,0.0,0.0,94,0.00,,,0.00,WeatherCatV2.31B93,2016-07-30 10:02:00,
2016-07-30 06:07:00,62.2,60.5,29.97,East,83,0.0,0.0,94,0.00,,,0.00,WeatherCatV2.31B93,2016-07-30 10:07:00,
2016-07-30 06:12:00,62.2,60.5,29.97,East,83,0.0,0.0,94,0.00,,,0.00,WeatherCatV2.31B93,2016-07-30 10:12:00,
2016-07-30 06:17:00,62.3,60.5,29.98,East,83,0.0,0.0,94,0.00,,,0.00,WeatherCatV2.31B93,2016-07-30 10:17:00,
2016-07-30 06:22:00,62.3,60.5,29.98,East,83,0.0,0.0,94,0.00,,,0.00,WeatherCatV2.31B93,2016-07-30 10:22:00,
2016-07-30 06:27:00,62.3,60.5,29.98,East,83,0.0,0.0,94,0.00,,,0.00,WeatherCatV2.31B93,2016-07-30 10:27:00,
2016-07-30 06:32:00,62.5,60.8,29.98,East,83,0.0,0.0,94,0.00,,,0.00,WeatherCatV2.31B93,2016-07-30 10:32:00,
2016-07-30 06:37:00,62.6,61.1,29.98,East,83,0.0,0.0,95,0.00,,,0.00,WeatherCatV2.31B93,2016-07-30 10:37:00,
2016-07-30 06:42:00,62.7,61.2,29.99,East,83,0.0,0.0,95,0.00,,,0.00,WeatherCatV2.31B93,2016-07-30 10:42:00,
2016-07-30 06:47:00,63.0,61.5,29.99,East,83,0.0,0.0,95,0.00,,,0.00,WeatherCatV2.31B93,2016-07-30 10:47:00,
2016-07-30 06:52:00,63.4,61.9,29.99,SSW,201,0.0,0.0,95,0.00,,,0.00,WeatherCatV2.31B93,2016-07-30 10:52:00,
2016-07-30 06:57:00,64.0,62.8,29.99,SSW,201,0.0,0.0,96,0.00,,,0.00,WeatherCatV2.31B93,2016-07-30 10:57:00,
2016-07-30 07:02:00,64.8,63.6,29.99,SSW,200,0.0,0.0,96,0.00,,,0.00,WeatherCatV2.31B93,2016-07-30 11:02:00,
2016-07-30 07:07:00,65.5,64.3,30.00,SSW,200,0.0,1.0,96,0.00,,,0.00,WeatherCatV2.31B93,2016-07-30 11:07:00,
2016-07-30 07:12:00,65.9,64.7,30.00,SSW,200,0.0,0.0,96,0.00,,,0.00,WeatherCatV2.31B93,2016-07-30 11:12:00,
2016-07-30 07:17:00,66.3,65.1,30.00,SSW,200,0.0,0.0,96,0.00,,,0.00,WeatherCatV2.31B93,2016-07-30 11:17:00,
2016-07-30 07:22:00,66.6,65.1,30.00,SSW,201,0.0,0.0,95,0.00,,,0.00,WeatherCatV2.31B93,2016-07-30 11:22:00,
2016-07-30 07:27:00,66.8,65.3,30.00,SSW,201,0.0,0.0,95,0.00,,,0.00,WeatherCatV2.31B93,2016-07-30 11:27:00,
2016-07-30 07:32:00,67.0,65.5,30.00,SSW,201,0.0,0.0,95,0.00,,,0.00,WeatherCatV2.31B93,2016-07-30 11:32:00,
2016-07-30 07:37:00,67.1,65.3,30.00,SSW,201,0.0,0.0,94,0.00,,,0.00,WeatherCatV2.31B93,2016-07-30 11:37:00,
2016-07-30 07:42:00,67.2,65.4,30.01,SSW,201,0.0,0.0,94,0.00,,,0.00,WeatherCatV2.31B93,2016-07-30 11:42:00,
2016-07-30 07:47:00,67.4,65.3,30.01,SSW,201,0.0,0.0,93,0.00,,,0.00,WeatherCatV2.31B93,2016-07-30 11:47:00,
2016-07-30 07:52:00,67.6,65.2,30.01,SSW,201,0.0,0.0,92,0.00,,,0.00,WeatherCatV2.31B93,2016-07-30 11:52:00,
2016-07-30 07:57:00,67.8,65.1,30.01,SSW,201,0.0,0.0,91,0.00,,,0.00,WeatherCatV2.31B93,2016-07-30 11:57:00,
2016-07-30 08:02:00,67.9,64.5,30.01,SSW,201,0.0,0.0,89,0.00,,,0.00,WeatherCatV2.31B93,2016-07-30 12:02:00,
2016-07-30 08:07:00,68.3,64.9,30.01,SSW,201,0.0,0.0,89,0.00,,,0.00,WeatherCatV2.31B93,2016-07-30 12:07:00,
2016-07-30 08:12:00,68.6,64.6,30.01,SSW,201,0.0,0.0,87,0.00,,,0.00,WeatherCatV2.31B93,2016-07-30 12:12:00,
2016-07-30 08:17:00,69.0,64.6,30.01,SE,127,0.0,0.0,86,0.00,,,0.00,WeatherCatV2.31B93,2016-07-30 12:17:00,
2016-07-30 08:22:00,69.4,65.0,30.01,East,100,0.0,0.0,86,0.00,,,0.00,WeatherCatV2.31B93,2016-07-30 12:22:00,
2016-07-30 08:27:00,69.9,65.2,30.01,East,100,0.0,1.0,85,0.00,,,0.00,WeatherCatV2.31B93,2016-07-30 12:27:00,
2016-07-30 08:32:00,70.4,65.7,30.01,East,100,0.0,0.0,85,0.00,,,0.00,WeatherCatV2.31B93,2016-07-30 12:32:00,
2016-07-30 08:37:00,71.1,66.3,30.01,East,100,0.0,0.0,85,0.00,,,0.00,WeatherCatV2.31B93,2016-07-30 12:37:00,
2016-07-30 08:42:00,71.8,66.3,30.02,East,100,0.0,0.0,83,0.00,,,0.00,WeatherCatV2.31B93,2016-07-30 12:42:00,
2016-07-30 08:47:00,72.6,66.4,30.02,East,99,0.0,0.0,81,0.00,,,0.00,WeatherCatV2.31B93,2016-07-30 12:47:00,
2016-07-30 08:52:00,73.0,65.7,30.02,East,99,0.0,0.0,78,0.00,,,0.00,WeatherCatV2.31B93,2016-07-30 12:52:00,
2016-07-30 08:57:00,73.7,66.4,30.02,East,99,0.0,0.0,78,0.00,,,0.00,WeatherCatV2.31B93,2016-07-30 12:57:00,
2016-07-30 09:02:00,74.4,66.7,30.02,East,99,1.0,1.0,77,0.00,,,0.00,WeatherCatV2.31B93,2016-07-30 13:02:00,
2016-07-30 09:07:00,75.1,66.2,30.02,East,99,0.0,1.0,74,0.00,,,0.00,WeatherCatV2.31B93,2016-07-30 13:07:00,
2016-07-30 09:12:00,75.6,65.9,30.02,East,99,0.0,2.0,72,0.00,,,0.00,WeatherCatV2.31B93,2016-07-30 13:12:00,
2016-07-30 09:17:00,75.3,66.4,30.02,South,190,0.0,1.0,74,0.00,,,0.00,WeatherCatV2.31B93,2016-07-30 13:17:00,
2016-07-30 09:22:00,75.8,66.1,30.02,SSE,151,0.0,2.0,72,0.00,,,0.00,WeatherCatV2.31B93,2016-07-30 13:22:00,
2016-07-30 09:27:00,76.0,65.1,30.02,East,93,0.0,4.0,69,0.00,,,0.00,WeatherCatV2.31B93,2016-07-30 13:27:00,
2016-07-30 09:32:00,75.6,63.4,30.01,East,93,0.0,3.0,66,0.00,,,0.00,WeatherCatV2.31B93,2016-07-30 13:32:00,
2016-07-30 09:37:00,75.6,64.3,30.02,East,93,0.0,0.0,68,0.00,,,0.00,WeatherCatV2.31B93,2016-07-30 13:37:00,
2016-07-30 09:42:00,76.0,65.5,30.02,East,93,0.0,0.0,70,0.00,,,0.00,WeatherCatV2.31B93,2016-07-30 13:42:00,
2016-07-30 09:47:00,76.4,65.9,30.01,East,93,0.0,1.0,70,0.00,,,0.00,WeatherCatV2.31B93,2016-07-30 13:47:00,
2016-07-30 09:52:00,76.6,65.7,30.01,East,93,0.0,1.0,69,0.00,,,0.00,WeatherCatV2.31B93,2016-07-30 13:52:00,
2016-07-30 09:57:00,76.7,64.9,30.02,East,93,1.0,1.0,67,0.00,,,0.00,WeatherCatV2.31B93,2016-07-30 13:57:00,
2016-07-30 10:02:00,76.4,65.5,30.02,East,93,0.0,0.0,69,0.00,,,0.00,WeatherCatV2.31B93,2016-07-30 14:02:00,
2016-07-30 10:07:00,76.5,64.7,30.02,East,93,0.0,1.0,67,0.00,,,0.00,WeatherCatV2.31B93,2016-07-30 14:07:00,
2016-07-30 10:12:00,76.9,65.9,30.02,East,93,1.0,1.0,69,0.00,,,0.00,WeatherCatV2.31B93,2016-07-30 14:12:00,
2016-07-30 10:17:00,77.0,65.2,30.02,East,93,0.0,1.0,67,0.00,,,0.00,WeatherCatV2.31B93,2016-07-30 14:17:00,
2016-07-30 10:22:00,76.9,65.5,30.02,SE,143,0.0,1.0,68,0.00,,,0.00,WeatherCatV2.31B93,2016-07-30 14:22:00,
2016-07-30 10:27:00,77.1,65.7,30.02,SE,143,0.0,1.0,68,0.00,,,0.00,WeatherCatV2.31B93,2016-07-30 14:27:00,
2016-07-30 10:32:00,77.3,65.0,30.02,SE,144,1.0,1.0,66,0.00,,,0.00,WeatherCatV2.31B93,2016-07-30 14:32:00,
2016-07-30 10:37:00,77.5,66.1,30.02,SE,144,0.0,0.0,68,0.00,,,0.00,WeatherCatV2.31B93,2016-07-30 14:37:00,
2016-07-30 10:42:00,77.8,65.1,30.01,SE,145,0.0,1.0,65,0.00,,,0.00,WeatherCatV2.31B93,2016-07-30 14:42:00,
2016-07-30 10:47:00,78.3,66.0,30.01,SE,145,0.0,1.0,66,0.00,,,0.00,WeatherCatV2.31B93,2016-07-30 14:47:00,
2016-07-30 10:52:00,78.7,65.9,30.02,SE,141,1.0,1.0,65,0.00,,,0.00,WeatherCatV2.31B93,2016-07-30 14:52:00,
2016-07-30 10:57:00,78.8,64.7,30.02,SE,143,0.0,1.0,62,0.00,,,0.00,WeatherCatV2.31B93,2016-07-30 14:57:00,
2016-07-30 11:02:00,78.8,65.1,30.02,SE,146,0.0,2.0,63,0.00,,,0.00,WeatherCatV2.31B93,2016-07-30 15:02:00,
2016-07-30 11:07:00,78.4,64.7,30.02,SSE,147,0.0,1.0,63,0.00,,,0.00,WeatherCatV2.31B93,2016-07-30 15:07:00,
2016-07-30 11:12:00,77.7,63.6,30.02,SSW,209,0.0,2.0,62,0.00,,,0.00,WeatherCatV2.31B93,2016-07-30 15:12:00,
2016-07-30 11:17:00,77.8,64.2,30.02,SSE,162,3.0,3.0,63,0.00,,,0.00,WeatherCatV2.31B93,2016-07-30 15:17:00,
2016-07-30 11:22:00,77.6,64.0,30.02,SW,216,0.0,1.0,63,0.00,,,0.00,WeatherCatV2.31B93,2016-07-30 15:22:00,
2016-07-30 11:27:00,77.7,62.2,30.02,SW,216,0.0,3.0,59,0.00,,,0.00,WeatherCatV2.31B93,2016-07-30 15:27:00,
2016-07-30 11:32:00,77.9,63.8,30.02,SW,216,0.0,1.0,62,0.00,,,0.00,WeatherCatV2.31B93,2016-07-30 15:32:00,